createdAt,value
2022-10-05T00:04:38.140Z,7.12
2022-10-05T00:09:41.441Z,7.05
2022-10-05T00:14:44.568Z,7.00
2022-10-05T00:19:52.140Z,6.94
2022-10-05T00:24:55.229Z,6.96
2022-10-05T00:29:58.414Z,6.95
2022-10-05T00:35:01.396Z,6.96
2022-10-05T00:40:04.370Z,6.96
2022-10-05T00:45:07.987Z,7.12
2022-10-05T00:50:13.262Z,7.13
2022-10-05T00:55:17.268Z,7.12
2022-10-05T01:00:21.193Z,7.07
2022-10-05T01:05:24.331Z,6.97
2022-10-05T01:10:27.673Z,6.99
2022-10-05T01:15:30.864Z,6.97
2022-10-05T01:20:34.070Z,7.12
2022-10-05T01:25:37.213Z,7.16
2022-10-05T01:30:40.651Z,7.10
2022-10-05T01:35:43.661Z,7.08
2022-10-05T01:40:46.991Z,7.03
2022-10-05T01:45:50.050Z,7.05
2022-10-05T01:50:53.060Z,7.14
2022-10-05T01:55:56.298Z,7.21
2022-10-05T02:00:59.330Z,7.18
2022-10-05T02:06:02.707Z,7.17
2022-10-05T02:11:05.754Z,7.12
2022-10-05T02:16:09.130Z,7.13
2022-10-05T02:21:13.032Z,7.13
2022-10-05T02:26:17.286Z,7.09
2022-10-05T02:31:21.781Z,7.08
2022-10-05T02:36:24.822Z,7.00
2022-10-05T02:41:28.209Z,6.91
2022-10-05T02:46:31.588Z,6.89
2022-10-05T02:51:34.812Z,6.87
2022-10-05T02:56:38.098Z,6.74
2022-10-05T03:01:41.398Z,6.76
2022-10-05T03:06:45.161Z,6.73
2022-10-05T03:11:48.443Z,6.65
2022-10-05T03:16:51.827Z,6.59
2022-10-05T03:21:54.946Z,6.60
2022-10-05T03:26:57.992Z,6.60
2022-10-05T03:32:01.046Z,6.45
2022-10-05T03:37:04.075Z,6.39
2022-10-05T03:42:07.198Z,6.38
2022-10-05T03:47:10.692Z,6.29
2022-10-05T03:52:13.996Z,6.29
2022-10-05T03:57:17.468Z,6.26
2022-10-05T04:02:23.952Z,6.20
2022-10-05T04:07:27.014Z,6.17
2022-10-05T04:12:31.229Z,6.14
2022-10-05T04:17:35.765Z,6.15
2022-10-05T04:22:39.352Z,6.15
2022-10-05T04:27:42.832Z,6.13
2022-10-05T04:32:46.228Z,6.13
2022-10-05T04:37:49.342Z,6.14
2022-10-05T04:42:56.007Z,6.05
2022-10-05T04:48:00.048Z,6.09
2022-10-05T04:53:03.509Z,6.04
2022-10-05T04:58:06.998Z,6.05
2022-10-05T05:03:10.113Z,6.05
2022-10-05T05:08:13.131Z,6.06
2022-10-05T05:13:16.099Z,6.15
2022-10-05T05:18:19.040Z,6.12
2022-10-05T05:23:22.379Z,6.20
2022-10-05T05:28:28.670Z,6.23
2022-10-05T05:33:31.934Z,6.38
2022-10-05T05:38:34.952Z,6.46
2022-10-05T05:43:37.836Z,6.58
2022-10-05T05:48:42.617Z,6.68
2022-10-05T05:53:46.507Z,6.78
2022-10-05T05:58:49.621Z,6.95
2022-10-05T06:03:52.737Z,7.08
2022-10-05T06:08:56.502Z,7.34
2022-10-05T06:13:59.279Z,7.51
2022-10-05T06:19:02.069Z,7.78
2022-10-05T06:24:05.527Z,7.94
2022-10-05T06:29:08.286Z,8.16
2022-10-05T06:34:14.826Z,8.49
2022-10-05T06:39:18.189Z,8.76
2022-10-05T06:44:21.574Z,9.02
2022-10-05T06:49:25.085Z,9.20
2022-10-05T06:54:28.324Z,9.31
2022-10-05T06:59:31.530Z,9.62
2022-10-05T07:04:37.106Z,9.98
2022-10-05T07:09:40.707Z,10.24
2022-10-05T07:14:44.048Z,10.46
2022-10-05T07:19:47.628Z,10.73
2022-10-05T07:24:51.156Z,11.07
2022-10-05T07:29:54.598Z,11.28
2022-10-05T07:34:57.835Z,11.63
2022-10-05T07:40:01.572Z,11.83
2022-10-05T07:45:05.275Z,12.11
2022-10-05T07:50:08.025Z,12.49
2022-10-05T07:55:11.679Z,12.81
2022-10-05T08:00:15.088Z,13.12
2022-10-05T08:05:17.901Z,13.50
2022-10-05T08:10:20.647Z,13.77
2022-10-05T08:15:23.606Z,14.14
2022-10-05T08:20:26.890Z,14.53
2022-10-05T08:25:30.332Z,14.86
2022-10-05T08:30:33.022Z,14.96
2022-10-05T08:35:35.826Z,15.19
2022-10-05T08:40:40.306Z,15.71
2022-10-05T08:45:43.125Z,15.87
2022-10-05T08:50:48.779Z,16.28
2022-10-05T08:55:52.214Z,16.62
2022-10-05T09:00:55.400Z,16.79
2022-10-05T09:05:58.490Z,17.02
2022-10-05T09:11:02.572Z,17.13
2022-10-05T09:16:05.377Z,17.37
2022-10-05T09:21:08.253Z,17.41
2022-10-05T09:26:11.255Z,17.50
2022-10-05T09:31:14.105Z,17.86
2022-10-05T09:36:17.726Z,17.75
2022-10-05T09:41:21.687Z,17.59
2022-10-05T09:46:25.949Z,17.85
2022-10-05T09:51:29.404Z,17.95
2022-10-05T09:56:34.510Z,17.96
2022-10-05T10:01:37.858Z,18.37
2022-10-05T10:06:41.521Z,18.70
2022-10-05T10:11:45.026Z,18.78
2022-10-05T10:16:49.779Z,18.93
2022-10-05T10:21:53.594Z,18.94
2022-10-05T10:26:56.768Z,19.29
2022-10-05T10:32:00.633Z,19.51
2022-10-05T10:37:06.080Z,19.55
2022-10-05T10:42:08.898Z,19.85
2022-10-05T10:47:12.291Z,20.06
2022-10-05T10:52:15.899Z,20.33
2022-10-05T10:57:18.988Z,20.35
2022-10-05T11:02:22.427Z,20.58
2022-10-05T11:07:25.768Z,20.59
2022-10-05T11:12:33.539Z,20.92
2022-10-05T11:17:37.708Z,21.11
2022-10-05T11:22:41.063Z,21.05
2022-10-05T11:27:44.345Z,21.25
2022-10-05T11:32:47.996Z,21.53
2022-10-05T11:37:51.406Z,21.67
2022-10-05T11:42:54.854Z,21.58
2022-10-05T11:47:58.232Z,21.66
2022-10-05T11:53:01.543Z,21.77
2022-10-05T11:58:06.775Z,21.53
2022-10-05T12:03:10.318Z,21.42
2022-10-05T12:08:13.613Z,21.41
2022-10-05T12:13:19.255Z,21.46
2022-10-05T12:18:22.438Z,21.65
2022-10-05T12:23:25.624Z,21.65
2022-10-05T12:28:28.825Z,21.79
2022-10-05T12:33:32.796Z,21.86
2022-10-05T12:38:36.314Z,22.04
2022-10-05T12:43:39.954Z,22.09
2022-10-05T12:48:43.770Z,21.97
2022-10-05T12:53:48.602Z,22.20
2022-10-05T12:59:00.463Z,22.19
2022-10-05T13:04:03.709Z,22.29
2022-10-05T13:09:08.658Z,22.29
2022-10-05T13:14:11.878Z,22.23
2022-10-05T13:19:15.174Z,22.31
2022-10-05T13:24:18.697Z,22.32
2022-10-05T13:29:22.170Z,22.29
2022-10-05T13:34:25.545Z,22.31
2022-10-05T13:39:28.979Z,22.56
2022-10-05T13:44:35.740Z,22.48
2022-10-05T13:49:39.207Z,22.54
2022-10-05T13:54:42.899Z,22.47
2022-10-05T13:59:46.365Z,22.43
2022-10-05T14:04:57.016Z,22.48
2022-10-05T14:10:00.716Z,22.35
2022-10-05T14:15:05.423Z,22.35
2022-10-05T14:20:09.181Z,22.20
2022-10-05T14:25:14.127Z,21.98
2022-10-05T14:30:18.005Z,21.90
2022-10-05T14:35:22.177Z,21.74
2022-10-05T14:40:26.189Z,21.65
2022-10-05T14:45:32.814Z,21.40
2022-10-05T14:50:36.179Z,21.37
2022-10-05T14:55:39.618Z,21.34
2022-10-05T15:00:46.829Z,21.32
2022-10-05T15:05:52.350Z,21.22
2022-10-05T15:10:58.862Z,20.92
2022-10-05T15:16:02.144Z,20.84
2022-10-05T15:21:11.034Z,20.67
2022-10-05T15:26:17.117Z,20.62
2022-10-05T15:31:21.849Z,20.43
2022-10-05T15:36:25.993Z,20.29
2022-10-05T15:41:30.187Z,20.24
2022-10-05T15:46:37.352Z,20.00
2022-10-05T15:51:42.584Z,19.87
2022-10-05T15:56:46.302Z,19.75
2022-10-05T16:01:51.344Z,19.61
2022-10-05T16:07:12.658Z,19.42
2022-10-05T16:12:17.859Z,19.22
2022-10-05T16:17:21.606Z,18.96
2022-10-05T16:22:43.458Z,18.70
2022-10-05T16:27:48.033Z,18.52
2022-10-05T16:32:52.703Z,18.24
2022-10-05T16:37:56.626Z,17.95
2022-10-05T16:42:59.903Z,17.64
2022-10-05T16:48:03.104Z,17.33
2022-10-05T16:53:06.463Z,17.30
2022-10-05T16:58:09.710Z,17.10
2022-10-05T17:03:13.344Z,16.86
2022-10-05T17:08:16.623Z,16.72
2022-10-05T17:13:20.017Z,16.56
2022-10-05T17:18:25.462Z,16.37
2022-10-05T17:23:30.273Z,16.19
2022-10-05T17:28:33.740Z,16.06
2022-10-05T17:33:36.990Z,16.02
2022-10-05T17:38:40.723Z,15.71
2022-10-05T17:43:49.486Z,15.62
2022-10-05T17:48:54.251Z,15.51
2022-10-05T17:54:15.070Z,15.48
2022-10-05T17:59:18.430Z,15.48
2022-10-05T18:04:22.047Z,15.33
2022-10-05T18:09:26.177Z,15.22
2022-10-05T18:14:29.176Z,15.04
2022-10-05T18:19:33.456Z,15.07
2022-10-05T18:24:36.596Z,14.94
2022-10-05T18:29:57.134Z,14.84
2022-10-05T18:35:05.971Z,14.79
2022-10-05T18:40:10.428Z,14.82
2022-10-05T18:45:18.843Z,14.66
2022-10-05T18:50:22.188Z,14.52
2022-10-05T18:55:25.130Z,14.42
2022-10-05T19:00:28.242Z,14.43
2022-10-05T19:05:48.362Z,14.16
2022-10-05T19:10:51.868Z,13.96
2022-10-05T19:15:54.960Z,13.98
2022-10-05T19:20:57.855Z,13.84
2022-10-05T19:26:02.547Z,13.74
2022-10-05T19:31:05.356Z,13.61
2022-10-05T19:36:08.106Z,13.55
2022-10-05T19:41:11.371Z,13.51
2022-10-05T19:46:19.106Z,13.29
2022-10-05T19:51:22.934Z,13.21
2022-10-05T19:56:26.367Z,13.12
2022-10-05T20:01:30.921Z,12.89
2022-10-05T20:06:34.417Z,12.80
2022-10-05T20:11:37.647Z,12.79
2022-10-05T20:16:58.497Z,12.76
2022-10-05T20:22:01.735Z,12.60
2022-10-05T20:27:16.220Z,12.58
2022-10-05T20:32:19.773Z,12.69
2022-10-05T20:37:22.940Z,12.64
2022-10-05T20:42:26.721Z,12.59
2022-10-05T20:47:29.992Z,12.62
2022-10-05T20:52:33.359Z,12.57
2022-10-05T20:57:38.613Z,12.58
2022-10-05T21:02:41.781Z,12.57
2022-10-05T21:07:45.052Z,12.45
2022-10-05T21:12:48.570Z,12.49
2022-10-05T21:17:51.887Z,12.55
2022-10-05T21:22:55.499Z,12.29
2022-10-05T21:27:58.712Z,12.26
2022-10-05T21:33:01.907Z,12.34
2022-10-05T21:38:05.524Z,12.52
2022-10-05T21:43:08.821Z,12.51
2022-10-05T21:48:12.081Z,12.49
2022-10-05T21:53:15.275Z,12.27
2022-10-05T21:58:18.457Z,12.36
2022-10-05T22:03:22.067Z,12.32
2022-10-05T22:08:25.361Z,12.24
2022-10-05T22:13:28.559Z,12.27
2022-10-05T22:18:32.185Z,12.11
2022-10-05T22:23:36.235Z,12.08
2022-10-05T22:28:39.687Z,12.00
2022-10-05T22:33:42.955Z,12.09
2022-10-05T22:38:46.624Z,12.02
2022-10-05T22:43:50.843Z,11.97
2022-10-05T22:48:54.102Z,11.83
2022-10-05T22:53:57.745Z,11.81
2022-10-05T22:59:00.922Z,11.67
2022-10-05T23:04:04.492Z,11.61
2022-10-05T23:09:07.705Z,11.66
2022-10-05T23:14:11.035Z,11.52
2022-10-05T23:19:14.209Z,11.53
2022-10-05T23:24:17.525Z,11.54
2022-10-05T23:29:20.677Z,11.42
2022-10-05T23:34:25.672Z,11.43
2022-10-05T23:39:28.835Z,11.33
2022-10-05T23:44:32.089Z,11.29
2022-10-05T23:49:35.518Z,11.26
2022-10-05T23:54:38.767Z,11.14
2022-10-05T23:59:41.966Z,11.00
